sensor_id;sensor_type;location;lat;lon;timestamp;P1;durP1;ratioP1;P2;durP2;ratioP2
28427;SDS011;15662;49.128;8.520;2024-02-04T00:02:12;9.80;;;4.05;;
28427;SDS011;15662;49.128;8.520;2024-02-04T00:04:41;4.80;;;4.00;;
28427;SDS011;15662;49.128;8.520;2024-02-04T00:07:08;4.90;;;4.28;;
28427;SDS011;15662;49.128;8.520;2024-02-04T00:09:36;5.78;;;3.63;;
28427;SDS011;15662;49.128;8.520;2024-02-04T00:12:03;5.10;;;3.67;;
28427;SDS011;15662;49.128;8.520;2024-02-04T00:14:32;4.93;;;3.65;;
28427;SDS011;15662;49.128;8.520;2024-02-04T00:16:59;4.90;;;3.90;;
28427;SDS011;15662;49.128;8.520;2024-02-04T00:19:26;7.25;;;4.28;;
28427;SDS011;15662;49.128;8.520;2024-02-04T00:21:54;8.60;;;5.30;;
28427;SDS011;15662;49.128;8.520;2024-02-04T00:24:21;6.53;;;4.50;;
28427;SDS011;15662;49.128;8.520;2024-02-04T00:26:49;22.10;;;11.35;;
28427;SDS011;15662;49.128;8.520;2024-02-04T00:29:16;10.75;;;6.03;;
28427;SDS011;15662;49.128;8.520;2024-02-04T00:31:43;5.68;;;4.20;;
28427;SDS011;15662;49.128;8.520;2024-02-04T00:34:10;6.32;;;3.40;;
28427;SDS011;15662;49.128;8.520;2024-02-04T00:36:37;3.20;;;2.90;;
28427;SDS011;15662;49.128;8.520;2024-02-04T00:39:05;3.38;;;3.08;;
28427;SDS011;15662;49.128;8.520;2024-02-04T00:41:34;4.88;;;3.00;;
28427;SDS011;15662;49.128;8.520;2024-02-04T00:44:01;3.03;;;2.72;;
28427;SDS011;15662;49.128;8.520;2024-02-04T00:46:29;2.95;;;2.65;;
28427;SDS011;15662;49.128;8.520;2024-02-04T00:48:56;3.53;;;2.47;;
28427;SDS011;15662;49.128;8.520;2024-02-04T00:51:23;2.78;;;2.40;;
28427;SDS011;15662;49.128;8.520;2024-02-04T00:53:51;3.10;;;2.60;;
28427;SDS011;15662;49.128;8.520;2024-02-04T00:56:20;3.75;;;2.38;;
28427;SDS011;15662;49.128;8.520;2024-02-04T00:58:47;2.60;;;2.40;;
28427;SDS011;15662;49.128;8.520;2024-02-04T01:01:15;2.45;;;2.25;;
28427;SDS011;15662;49.128;8.520;2024-02-04T01:03:42;2.60;;;2.40;;
28427;SDS011;15662;49.128;8.520;2024-02-04T01:06:10;2.50;;;2.30;;
28427;SDS011;15662;49.128;8.520;2024-02-04T01:08:37;3.15;;;2.60;;
28427;SDS011;15662;49.128;8.520;2024-02-04T01:11:05;2.85;;;2.33;;
28427;SDS011;15662;49.128;8.520;2024-02-04T01:13:32;2.50;;;2.30;;
28427;SDS011;15662;49.128;8.520;2024-02-04T01:15:59;2.63;;;2.40;;
28427;SDS011;15662;49.128;8.520;2024-02-04T01:18:26;2.42;;;2.22;;
28427;SDS011;15662;49.128;8.520;2024-02-04T01:20:54;2.13;;;2.03;;
28427;SDS011;15662;49.128;8.520;2024-02-04T01:23:21;2.20;;;2.10;;
28427;SDS011;15662;49.128;8.520;2024-02-04T01:25:48;3.38;;;1.90;;
28427;SDS011;15662;49.128;8.520;2024-02-04T01:28:16;3.92;;;2.42;;
28427;SDS011;15662;49.128;8.520;2024-02-04T01:30:43;2.38;;;2.08;;
28427;SDS011;15662;49.128;8.520;2024-02-04T01:33:10;2.13;;;2.03;;
28427;SDS011;15662;49.128;8.520;2024-02-04T01:35:38;1.90;;;1.80;;
28427;SDS011;15662;49.128;8.520;2024-02-04T01:38:05;2.03;;;1.85;;
28427;SDS011;15662;49.128;8.520;2024-02-04T01:40:33;2.30;;;2.20;;
28427;SDS011;15662;49.128;8.520;2024-02-04T01:43:00;2.22;;;2.03;;
28427;SDS011;15662;49.128;8.520;2024-02-04T01:45:28;3.58;;;2.00;;
28427;SDS011;15662;49.128;8.520;2024-02-04T01:47:55;2.38;;;2.17;;
28427;SDS011;15662;49.128;8.520;2024-02-04T01:50:22;2.58;;;2.15;;
28427;SDS011;15662;49.128;8.520;2024-02-04T01:52:50;2.33;;;2.13;;
28427;SDS011;15662;49.128;8.520;2024-02-04T01:55:19;2.67;;;2.17;;
28427;SDS011;15662;49.128;8.520;2024-02-04T01:57:47;2.13;;;2.03;;
28427;SDS011;15662;49.128;8.520;2024-02-04T02:00:16;2.28;;;2.08;;
28427;SDS011;15662;49.128;8.520;2024-02-04T02:02:47;2.03;;;1.80;;
28427;SDS011;15662;49.128;8.520;2024-02-04T02:05:16;3.17;;;2.22;;
28427;SDS011;15662;49.128;8.520;2024-02-04T02:07:43;2.08;;;1.98;;
28427;SDS011;15662;49.128;8.520;2024-02-04T02:10:12;2.00;;;1.80;;
28427;SDS011;15662;49.128;8.520;2024-02-04T02:12:47;2.05;;;1.95;;
28427;SDS011;15662;49.128;8.520;2024-02-04T02:15:32;2.00;;;1.90;;
28427;SDS011;15662;49.128;8.520;2024-02-04T02:18:10;2.20;;;2.00;;
28427;SDS011;15662;49.128;8.520;2024-02-04T02:21:26;2.50;;;2.28;;
28427;SDS011;15662;49.128;8.520;2024-02-04T02:27:04;2.30;;;2.10;;
28427;SDS011;15662;49.128;8.520;2024-02-04T02:29:32;2.40;;;2.20;;
28427;SDS011;15662;49.128;8.520;2024-02-04T02:31:59;1.92;;;1.83;;
28427;SDS011;15662;49.128;8.520;2024-02-04T02:34:30;2.42;;;2.22;;
28427;SDS011;15662;49.128;8.520;2024-02-04T02:37:11;2.65;;;2.33;;
28427;SDS011;15662;49.128;8.520;2024-02-04T02:40:01;2.40;;;2.20;;
28427;SDS011;15662;49.128;8.520;2024-02-04T02:42:49;2.15;;;2.05;;
28427;SDS011;15662;49.128;8.520;2024-02-04T02:45:21;2.13;;;1.90;;
28427;SDS011;15662;49.128;8.520;2024-02-04T02:47:49;2.00;;;1.90;;
28427;SDS011;15662;49.128;8.520;2024-02-04T02:50:18;1.77;;;1.67;;
28427;SDS011;15662;49.128;8.520;2024-02-04T02:52:45;1.80;;;1.70;;
28427;SDS011;15662;49.128;8.520;2024-02-04T02:55:12;1.85;;;1.75;;
28427;SDS011;15662;49.128;8.520;2024-02-04T02:57:40;1.80;;;1.70;;
28427;SDS011;15662;49.128;8.520;2024-02-04T03:00:08;2.28;;;1.90;;
28427;SDS011;15662;49.128;8.520;2024-02-04T03:02:35;2.40;;;2.20;;
28427;SDS011;15662;49.128;8.520;2024-02-04T03:05:03;1.92;;;1.80;;
28427;SDS011;15662;49.128;8.520;2024-02-04T03:07:31;2.42;;;2.22;;
28427;SDS011;15662;49.128;8.520;2024-02-04T03:09:58;2.00;;;1.90;;
28427;SDS011;15662;49.128;8.520;2024-02-04T03:12:25;2.17;;;1.90;;
28427;SDS011;15662;49.128;8.520;2024-02-04T03:14:52;2.20;;;2.03;;
28427;SDS011;15662;49.128;8.520;2024-02-04T03:17:20;2.40;;;2.05;;
28427;SDS011;15662;49.128;8.520;2024-02-04T03:19:50;2.50;;;2.30;;
28427;SDS011;15662;49.128;8.520;2024-02-04T03:22:24;2.40;;;2.20;;
28427;SDS011;15662;49.128;8.520;2024-02-04T03:24:52;2.22;;;2.08;;
28427;SDS011;15662;49.128;8.520;2024-02-04T03:27:22;1.95;;;1.85;;
28427;SDS011;15662;49.128;8.520;2024-02-04T03:29:49;2.30;;;2.10;;
28427;SDS011;15662;49.128;8.520;2024-02-04T03:32:17;2.42;;;2.22;;
28427;SDS011;15662;49.128;8.520;2024-02-04T03:34:44;2.03;;;1.92;;
28427;SDS011;15662;49.128;8.520;2024-02-04T03:37:12;3.30;;;2.20;;
28427;SDS011;15662;49.128;8.520;2024-02-04T03:39:39;2.20;;;2.00;;
28427;SDS011;15662;49.128;8.520;2024-02-04T03:42:06;2.40;;;2.20;;
28427;SDS011;15662;49.128;8.520;2024-02-04T03:44:34;2.20;;;2.10;;
28427;SDS011;15662;49.128;8.520;2024-02-04T03:47:01;2.10;;;2.00;;
28427;SDS011;15662;49.128;8.520;2024-02-04T03:49:30;2.20;;;2.10;;
28427;SDS011;15662;49.128;8.520;2024-02-04T03:51:58;2.40;;;2.25;;
28427;SDS011;15662;49.128;8.520;2024-02-04T03:54:25;2.45;;;2.30;;
28427;SDS011;15662;49.128;8.520;2024-02-04T03:56:52;2.30;;;2.15;;
28427;SDS011;15662;49.128;8.520;2024-02-04T03:59:20;3.25;;;2.25;;
28427;SDS011;15662;49.128;8.520;2024-02-04T04:01:47;2.30;;;2.10;;
28427;SDS011;15662;49.128;8.520;2024-02-04T04:04:16;2.22;;;2.13;;
28427;SDS011;15662;49.128;8.520;2024-02-04T04:06:44;2.13;;;2.00;;
28427;SDS011;15662;49.128;8.520;2024-02-04T04:09:12;2.30;;;2.10;;
28427;SDS011;15662;49.128;8.520;2024-02-04T04:11:39;2.03;;;1.92;;
28427;SDS011;15662;49.128;8.520;2024-02-04T04:14:07;4.13;;;2.30;;
28427;SDS011;15662;49.128;8.520;2024-02-04T04:16:34;2.28;;;2.15;;
28427;SDS011;15662;49.128;8.520;2024-02-04T04:19:01;2.22;;;2.13;;
28427;SDS011;15662;49.128;8.520;2024-02-04T04:21:28;2.97;;;2.33;;
28427;SDS011;15662;49.128;8.520;2024-02-04T04:23:56;2.35;;;2.15;;
28427;SDS011;15662;49.128;8.520;2024-02-04T04:26:23;2.20;;;2.10;;
28427;SDS011;15662;49.128;8.520;2024-02-04T04:28:51;2.30;;;2.20;;
28427;SDS011;15662;49.128;8.520;2024-02-04T04:31:18;2.38;;;2.28;;
28427;SDS011;15662;49.128;8.520;2024-02-04T04:33:45;2.50;;;2.30;;
28427;SDS011;15662;49.128;8.520;2024-02-04T04:36:12;2.85;;;2.65;;
28427;SDS011;15662;49.128;8.520;2024-02-04T04:38:41;2.70;;;2.50;;
28427;SDS011;15662;49.128;8.520;2024-02-04T04:41:08;2.55;;;2.35;;
28427;SDS011;15662;49.128;8.520;2024-02-04T04:43:38;2.75;;;2.53;;
28427;SDS011;15662;49.128;8.520;2024-02-04T04:46:05;2.60;;;2.40;;
28427;SDS011;15662;49.128;8.520;2024-02-04T04:48:33;2.75;;;2.55;;
28427;SDS011;15662;49.128;8.520;2024-02-04T04:51:00;2.38;;;2.28;;
28427;SDS011;15662;49.128;8.520;2024-02-04T04:53:27;2.42;;;2.28;;
28427;SDS011;15662;49.128;8.520;2024-02-04T04:55:54;2.53;;;2.40;;
28427;SDS011;15662;49.128;8.520;2024-02-04T04:58:22;2.80;;;2.60;;
28427;SDS011;15662;49.128;8.520;2024-02-04T05:00:49;2.63;;;2.42;;
28427;SDS011;15662;49.128;8.520;2024-02-04T05:03:16;3.00;;;2.25;;
28427;SDS011;15662;49.128;8.520;2024-02-04T05:05:43;2.88;;;2.38;;
28427;SDS011;15662;49.128;8.520;2024-02-04T05:08:13;3.00;;;2.80;;
28427;SDS011;15662;49.128;8.520;2024-02-04T05:10:41;3.25;;;2.50;;
28427;SDS011;15662;49.128;8.520;2024-02-04T05:13:08;2.58;;;2.28;;
28427;SDS011;15662;49.128;8.520;2024-02-04T05:15:36;3.22;;;2.33;;
28427;SDS011;15662;49.128;8.520;2024-02-04T05:18:03;3.05;;;2.78;;
28427;SDS011;15662;49.128;8.520;2024-02-04T05:20:31;2.40;;;2.20;;
28427;SDS011;15662;49.128;8.520;2024-02-04T05:22:58;2.50;;;2.30;;
28427;SDS011;15662;49.128;8.520;2024-02-04T05:25:25;2.17;;;2.08;;
28427;SDS011;15662;49.128;8.520;2024-02-04T05:27:52;2.67;;;2.47;;
28427;SDS011;15662;49.128;8.520;2024-02-04T05:30:19;2.83;;;2.63;;
28427;SDS011;15662;49.128;8.520;2024-02-04T05:32:47;2.80;;;2.42;;
28427;SDS011;15662;49.128;8.520;2024-02-04T05:35:14;2.40;;;2.30;;
28427;SDS011;15662;49.128;8.520;2024-02-04T05:37:41;2.50;;;2.30;;
28427;SDS011;15662;49.128;8.520;2024-02-04T05:40:08;2.72;;;2.30;;
28427;SDS011;15662;49.128;8.520;2024-02-04T05:42:36;2.60;;;2.40;;
28427;SDS011;15662;49.128;8.520;2024-02-04T05:45:04;2.70;;;2.47;;
28427;SDS011;15662;49.128;8.520;2024-02-04T05:47:32;2.20;;;2.10;;
28427;SDS011;15662;49.128;8.520;2024-02-04T05:50:00;2.03;;;1.92;;
28427;SDS011;15662;49.128;8.520;2024-02-04T05:52:27;2.72;;;2.20;;
28427;SDS011;15662;49.128;8.520;2024-02-04T05:54:54;1.95;;;1.85;;
28427;SDS011;15662;49.128;8.520;2024-02-04T05:57:22;2.05;;;1.95;;
28427;SDS011;15662;49.128;8.520;2024-02-04T05:59:49;2.15;;;2.05;;
28427;SDS011;15662;49.128;8.520;2024-02-04T06:02:19;1.83;;;1.73;;
28427;SDS011;15662;49.128;8.520;2024-02-04T06:04:46;2.03;;;1.77;;
28427;SDS011;15662;49.128;8.520;2024-02-04T06:07:15;2.38;;;1.88;;
28427;SDS011;15662;49.128;8.520;2024-02-04T06:09:42;1.77;;;1.67;;
28427;SDS011;15662;49.128;8.520;2024-02-04T06:12:09;1.88;;;1.77;;
28427;SDS011;15662;49.128;8.520;2024-02-04T06:14:37;1.85;;;1.75;;
28427;SDS011;15662;49.128;8.520;2024-02-04T06:17:06;1.80;;;1.70;;
28427;SDS011;15662;49.128;8.520;2024-02-04T06:19:37;2.63;;;1.80;;
28427;SDS011;15662;49.128;8.520;2024-02-04T06:22:04;1.95;;;1.80;;
28427;SDS011;15662;49.128;8.520;2024-02-04T06:24:31;2.58;;;1.73;;
28427;SDS011;15662;49.128;8.520;2024-02-04T06:26:59;1.83;;;1.73;;
28427;SDS011;15662;49.128;8.520;2024-02-04T06:29:26;1.73;;;1.63;;
28427;SDS011;15662;49.128;8.520;2024-02-04T06:31:53;1.77;;;1.67;;
28427;SDS011;15662;49.128;8.520;2024-02-04T06:34:20;1.70;;;1.60;;
28427;SDS011;15662;49.128;8.520;2024-02-04T06:36:48;1.70;;;1.60;;
28427;SDS011;15662;49.128;8.520;2024-02-04T06:39:16;1.70;;;1.60;;
28427;SDS011;15662;49.128;8.520;2024-02-04T06:41:43;1.80;;;1.70;;
28427;SDS011;15662;49.128;8.520;2024-02-04T06:44:13;2.50;;;1.60;;
28427;SDS011;15662;49.128;8.520;2024-02-04T06:46:40;1.70;;;1.60;;
28427;SDS011;15662;49.128;8.520;2024-02-04T06:49:08;1.60;;;1.50;;
28427;SDS011;15662;49.128;8.520;2024-02-04T06:51:35;1.33;;;1.33;;
28427;SDS011;15662;49.128;8.520;2024-02-04T06:54:02;2.00;;;1.70;;
28427;SDS011;15662;49.128;8.520;2024-02-04T06:56:29;1.50;;;1.40;;
28427;SDS011;15662;49.128;8.520;2024-02-04T06:58:57;3.55;;;1.70;;
28427;SDS011;15662;49.128;8.520;2024-02-04T07:01:24;1.67;;;1.50;;
28427;SDS011;15662;49.128;8.520;2024-02-04T07:03:51;1.80;;;1.50;;
28427;SDS011;15662;49.128;8.520;2024-02-04T07:06:18;1.48;;;1.40;;
28427;SDS011;15662;49.128;8.520;2024-02-04T07:08:46;1.48;;;1.38;;
28427;SDS011;15662;49.128;8.520;2024-02-04T07:11:13;1.50;;;1.40;;
28427;SDS011;15662;49.128;8.520;2024-02-04T07:13:41;1.45;;;1.35;;
28427;SDS011;15662;49.128;8.520;2024-02-04T07:16:08;1.58;;;1.48;;
28427;SDS011;15662;49.128;8.520;2024-02-04T07:18:36;1.48;;;1.38;;
28427;SDS011;15662;49.128;8.520;2024-02-04T07:21:03;1.30;;;1.20;;
28427;SDS011;15662;49.128;8.520;2024-02-04T07:23:31;2.47;;;1.63;;
28427;SDS011;15662;49.128;8.520;2024-02-04T07:25:58;2.67;;;1.38;;
28427;SDS011;15662;49.128;8.520;2024-02-04T07:28:25;2.63;;;1.33;;
28427;SDS011;15662;49.128;8.520;2024-02-04T07:30:52;1.52;;;1.42;;
28427;SDS011;15662;49.128;8.520;2024-02-04T07:33:19;1.20;;;1.10;;
28427;SDS011;15662;49.128;8.520;2024-02-04T07:35:47;1.02;;;1.02;;
28427;SDS011;15662;49.128;8.520;2024-02-04T07:38:14;0.88;;;0.85;;
28427;SDS011;15662;49.128;8.520;2024-02-04T07:40:41;1.20;;;1.10;;
28427;SDS011;15662;49.128;8.520;2024-02-04T07:43:09;2.28;;;1.30;;
28427;SDS011;15662;49.128;8.520;2024-02-04T07:45:37;0.90;;;0.90;;
28427;SDS011;15662;49.128;8.520;2024-02-04T07:48:04;1.10;;;0.93;;
28427;SDS011;15662;49.128;8.520;2024-02-04T07:50:32;1.00;;;1.00;;
28427;SDS011;15662;49.128;8.520;2024-02-04T07:52:59;2.47;;;0.90;;
28427;SDS011;15662;49.128;8.520;2024-02-04T07:55:26;1.10;;;0.90;;
28427;SDS011;15662;49.128;8.520;2024-02-04T07:57:54;1.10;;;1.05;;
28427;SDS011;15662;49.128;8.520;2024-02-04T08:00:21;1.02;;;0.75;;
28427;SDS011;15662;49.128;8.520;2024-02-04T08:02:48;2.25;;;0.90;;
28427;SDS011;15662;49.128;8.520;2024-02-04T08:05:15;1.38;;;1.00;;
28427;SDS011;15662;49.128;8.520;2024-02-04T08:07:43;1.15;;;1.00;;
28427;SDS011;15662;49.128;8.520;2024-02-04T08:10:10;1.00;;;0.90;;
28427;SDS011;15662;49.128;8.520;2024-02-04T08:12:38;1.15;;;1.02;;
28427;SDS011;15662;49.128;8.520;2024-02-04T08:15:05;1.00;;;0.80;;
28427;SDS011;15662;49.128;8.520;2024-02-04T08:17:33;0.73;;;0.73;;
28427;SDS011;15662;49.128;8.520;2024-02-04T08:20:00;0.65;;;0.65;;
28427;SDS011;15662;49.128;8.520;2024-02-04T08:22:28;0.60;;;0.60;;
28427;SDS011;15662;49.128;8.520;2024-02-04T08:24:55;0.60;;;0.60;;
28427;SDS011;15662;49.128;8.520;2024-02-04T08:27:22;0.65;;;0.65;;
28427;SDS011;15662;49.128;8.520;2024-02-04T08:29:49;1.83;;;0.70;;
28427;SDS011;15662;49.128;8.520;2024-02-04T08:32:17;2.17;;;0.80;;
28427;SDS011;15662;49.128;8.520;2024-02-04T08:34:44;1.10;;;1.00;;
28427;SDS011;15662;49.128;8.520;2024-02-04T08:37:11;1.05;;;0.98;;
28427;SDS011;15662;49.128;8.520;2024-02-04T08:39:38;0.63;;;0.63;;
28427;SDS011;15662;49.128;8.520;2024-02-04T08:42:06;0.70;;;0.70;;
28427;SDS011;15662;49.128;8.520;2024-02-04T08:44:33;0.73;;;0.68;;
28427;SDS011;15662;49.128;8.520;2024-02-04T08:47:05;0.80;;;0.80;;
28427;SDS011;15662;49.128;8.520;2024-02-04T08:49:36;0.75;;;0.75;;
28427;SDS011;15662;49.128;8.520;2024-02-04T08:52:04;0.70;;;0.70;;
28427;SDS011;15662;49.128;8.520;2024-02-04T08:54:32;1.42;;;1.00;;
28427;SDS011;15662;49.128;8.520;2024-02-04T08:56:59;2.30;;;1.20;;
28427;SDS011;15662;49.128;8.520;2024-02-04T08:59:26;0.85;;;0.85;;
28427;SDS011;15662;49.128;8.520;2024-02-04T09:01:53;1.83;;;1.08;;
28427;SDS011;15662;49.128;8.520;2024-02-04T09:04:21;0.80;;;0.80;;
28427;SDS011;15662;49.128;8.520;2024-02-04T09:06:48;0.88;;;0.88;;
28427;SDS011;15662;49.128;8.520;2024-02-04T09:09:16;0.70;;;0.70;;
28427;SDS011;15662;49.128;8.520;2024-02-04T09:11:43;0.70;;;0.70;;
28427;SDS011;15662;49.128;8.520;2024-02-04T09:14:10;0.73;;;0.73;;
28427;SDS011;15662;49.128;8.520;2024-02-04T09:16:38;0.75;;;0.73;;
28427;SDS011;15662;49.128;8.520;2024-02-04T09:19:05;1.08;;;0.88;;
28427;SDS011;15662;49.128;8.520;2024-02-04T09:21:33;1.42;;;0.77;;
28427;SDS011;15662;49.128;8.520;2024-02-04T09:24:01;0.70;;;0.70;;
28427;SDS011;15662;49.128;8.520;2024-02-04T09:26:28;0.50;;;0.50;;
28427;SDS011;15662;49.128;8.520;2024-02-04T09:28:55;0.68;;;0.68;;
28427;SDS011;15662;49.128;8.520;2024-02-04T09:31:23;0.70;;;0.70;;
28427;SDS011;15662;49.128;8.520;2024-02-04T09:33:51;0.60;;;0.60;;
28427;SDS011;15662;49.128;8.520;2024-02-04T09:36:19;0.90;;;0.65;;
28427;SDS011;15662;49.128;8.520;2024-02-04T09:38:49;0.60;;;0.60;;
28427;SDS011;15662;49.128;8.520;2024-02-04T09:41:16;0.68;;;0.60;;
28427;SDS011;15662;49.128;8.520;2024-02-04T09:43:43;0.70;;;0.70;;
28427;SDS011;15662;49.128;8.520;2024-02-04T09:46:12;1.10;;;0.60;;
28427;SDS011;15662;49.128;8.520;2024-02-04T09:48:42;0.65;;;0.65;;
28427;SDS011;15662;49.128;8.520;2024-02-04T09:51:12;0.60;;;0.60;;
28427;SDS011;15662;49.128;8.520;2024-02-04T09:53:41;0.57;;;0.57;;
28427;SDS011;15662;49.128;8.520;2024-02-04T09:56:11;0.65;;;0.65;;
28427;SDS011;15662;49.128;8.520;2024-02-04T09:58:44;0.55;;;0.55;;
28427;SDS011;15662;49.128;8.520;2024-02-04T10:01:12;1.08;;;0.60;;
28427;SDS011;15662;49.128;8.520;2024-02-04T10:03:42;0.52;;;0.52;;
28427;SDS011;15662;49.128;8.520;2024-02-04T10:06:10;0.95;;;0.90;;
28427;SDS011;15662;49.128;8.520;2024-02-04T10:08:38;1.67;;;0.80;;
28427;SDS011;15662;49.128;8.520;2024-02-04T10:11:05;1.50;;;1.40;;
28427;SDS011;15662;49.128;8.520;2024-02-04T10:13:45;0.80;;;0.80;;
28427;SDS011;15662;49.128;8.520;2024-02-04T10:16:14;0.75;;;0.75;;
28427;SDS011;15662;49.128;8.520;2024-02-04T10:18:46;0.82;;;0.70;;
28427;SDS011;15662;49.128;8.520;2024-02-04T10:21:20;0.70;;;0.60;;
28427;SDS011;15662;49.128;8.520;2024-02-04T10:23:50;0.70;;;0.70;;
28427;SDS011;15662;49.128;8.520;2024-02-04T10:26:17;0.73;;;0.60;;
28427;SDS011;15662;49.128;8.520;2024-02-04T10:28:48;0.63;;;0.63;;
28427;SDS011;15662;49.128;8.520;2024-02-04T10:31:16;1.15;;;0.80;;
28427;SDS011;15662;49.128;8.520;2024-02-04T10:33:43;0.70;;;0.70;;
28427;SDS011;15662;49.128;8.520;2024-02-04T10:36:12;1.35;;;0.85;;
28427;SDS011;15662;49.128;8.520;2024-02-04T10:38:39;0.90;;;0.70;;
28427;SDS011;15662;49.128;8.520;2024-02-04T10:41:06;0.68;;;0.68;;
28427;SDS011;15662;49.128;8.520;2024-02-04T10:43:39;1.35;;;0.57;;
28427;SDS011;15662;49.128;8.520;2024-02-04T10:46:16;0.82;;;0.70;;
28427;SDS011;15662;49.128;8.520;2024-02-04T10:48:55;0.90;;;0.70;;
28427;SDS011;15662;49.128;8.520;2024-02-04T10:51:25;1.27;;;0.70;;
28427;SDS011;15662;49.128;8.520;2024-02-04T10:53:54;0.60;;;0.60;;
28427;SDS011;15662;49.128;8.520;2024-02-04T10:56:36;0.90;;;0.90;;
28427;SDS011;15662;49.128;8.520;2024-02-04T10:59:10;0.70;;;0.70;;
28427;SDS011;15662;49.128;8.520;2024-02-04T11:01:40;0.45;;;0.45;;
28427;SDS011;15662;49.128;8.520;2024-02-04T11:04:08;0.80;;;0.80;;
28427;SDS011;15662;49.128;8.520;2024-02-04T11:06:40;0.75;;;0.70;;
28427;SDS011;15662;49.128;8.520;2024-02-04T11:09:08;1.45;;;0.60;;
28427;SDS011;15662;49.128;8.520;2024-02-04T11:11:37;0.70;;;0.60;;
28427;SDS011;15662;49.128;8.520;2024-02-04T11:14:07;1.20;;;0.70;;
28427;SDS011;15662;49.128;8.520;2024-02-04T11:28:11;0.60;;;0.60;;
28427;SDS011;15662;49.128;8.520;2024-02-04T11:30:39;1.17;;;0.50;;
28427;SDS011;15662;49.128;8.520;2024-02-04T11:33:07;0.40;;;0.40;;
28427;SDS011;15662;49.128;8.520;2024-02-04T11:35:38;0.52;;;0.52;;
28427;SDS011;15662;49.128;8.520;2024-02-04T11:38:05;0.47;;;0.47;;
28427;SDS011;15662;49.128;8.520;2024-02-04T11:40:36;0.50;;;0.50;;
28427;SDS011;15662;49.128;8.520;2024-02-04T11:43:10;0.60;;;0.60;;
28427;SDS011;15662;49.128;8.520;2024-02-04T11:45:39;0.40;;;0.40;;
28427;SDS011;15662;49.128;8.520;2024-02-04T11:48:08;0.90;;;0.50;;
28427;SDS011;15662;49.128;8.520;2024-02-04T11:50:39;1.25;;;0.40;;
28427;SDS011;15662;49.128;8.520;2024-02-04T11:53:08;0.40;;;0.40;;
28427;SDS011;15662;49.128;8.520;2024-02-04T11:55:38;0.50;;;0.50;;
28427;SDS011;15662;49.128;8.520;2024-02-04T11:58:11;0.52;;;0.52;;
28427;SDS011;15662;49.128;8.520;2024-02-04T12:00:41;0.57;;;0.50;;
28427;SDS011;15662;49.128;8.520;2024-02-04T12:03:11;1.65;;;0.52;;
28427;SDS011;15662;49.128;8.520;2024-02-04T12:05:38;0.57;;;0.57;;
28427;SDS011;15662;49.128;8.520;2024-02-04T12:08:06;0.43;;;0.43;;
28427;SDS011;15662;49.128;8.520;2024-02-04T12:10:35;0.55;;;0.55;;
28427;SDS011;15662;49.128;8.520;2024-02-04T12:13:03;0.93;;;0.50;;
28427;SDS011;15662;49.128;8.520;2024-02-04T12:15:35;0.82;;;0.50;;
28427;SDS011;15662;49.128;8.520;2024-02-04T12:18:07;0.40;;;0.40;;
28427;SDS011;15662;49.128;8.520;2024-02-04T12:20:36;0.60;;;0.60;;
28427;SDS011;15662;49.128;8.520;2024-02-04T12:23:04;0.75;;;0.50;;
28427;SDS011;15662;49.128;8.520;2024-02-04T12:25:33;0.30;;;0.30;;
28427;SDS011;15662;49.128;8.520;2024-02-04T12:28:02;0.50;;;0.43;;
28427;SDS011;15662;49.128;8.520;2024-02-04T12:30:31;0.50;;;0.50;;
28427;SDS011;15662;49.128;8.520;2024-02-04T12:33:00;0.40;;;0.40;;
28427;SDS011;15662;49.128;8.520;2024-02-04T12:37:59;0.43;;;0.40;;
28427;SDS011;15662;49.128;8.520;2024-02-04T12:40:27;0.32;;;0.32;;
28427;SDS011;15662;49.128;8.520;2024-02-04T12:42:57;0.75;;;0.55;;
28427;SDS011;15662;49.128;8.520;2024-02-04T12:45:31;0.50;;;0.50;;
28427;SDS011;15662;49.128;8.520;2024-02-04T12:47:58;2.42;;;0.90;;
28427;SDS011;15662;49.128;8.520;2024-02-04T12:50:26;0.50;;;0.50;;
28427;SDS011;15662;49.128;8.520;2024-02-04T12:55:35;0.50;;;0.50;;
28427;SDS011;15662;49.128;8.520;2024-02-04T12:58:04;0.98;;;0.70;;
28427;SDS011;15662;49.128;8.520;2024-02-04T13:00:33;0.40;;;0.40;;
28427;SDS011;15662;49.128;8.520;2024-02-04T13:03:02;0.40;;;0.40;;
28427;SDS011;15662;49.128;8.520;2024-02-04T13:05:31;0.32;;;0.32;;
28427;SDS011;15662;49.128;8.520;2024-02-04T13:08:01;0.45;;;0.45;;
28427;SDS011;15662;49.128;8.520;2024-02-04T13:10:32;0.47;;;0.47;;
28427;SDS011;15662;49.128;8.520;2024-02-04T13:13:05;0.82;;;0.57;;
28427;SDS011;15662;49.128;8.520;2024-02-04T13:15:38;1.10;;;0.47;;
28427;SDS011;15662;49.128;8.520;2024-02-04T13:18:07;0.50;;;0.50;;
28427;SDS011;15662;49.128;8.520;2024-02-04T13:20:38;0.40;;;0.40;;
28427;SDS011;15662;49.128;8.520;2024-02-04T13:23:10;0.93;;;0.50;;
28427;SDS011;15662;49.128;8.520;2024-02-04T13:25:38;0.70;;;0.63;;
28427;SDS011;15662;49.128;8.520;2024-02-04T13:28:05;0.40;;;0.40;;
28427;SDS011;15662;49.128;8.520;2024-02-04T13:30:39;0.40;;;0.40;;
28427;SDS011;15662;49.128;8.520;2024-02-04T13:33:14;0.50;;;0.50;;
28427;SDS011;15662;49.128;8.520;2024-02-04T13:35:44;6.43;;;0.77;;
28427;SDS011;15662;49.128;8.520;2024-02-04T13:38:13;0.45;;;0.45;;
28427;SDS011;15662;49.128;8.520;2024-02-04T13:40:40;0.82;;;0.57;;
28427;SDS011;15662;49.128;8.520;2024-02-04T13:43:16;0.75;;;0.70;;
28427;SDS011;15662;49.128;8.520;2024-02-04T13:45:44;0.85;;;0.40;;
28427;SDS011;15662;49.128;8.520;2024-02-04T13:48:11;1.00;;;0.60;;
28427;SDS011;15662;49.128;8.520;2024-02-04T13:50:38;0.52;;;0.52;;
28427;SDS011;15662;49.128;8.520;2024-02-04T13:53:11;0.68;;;0.68;;
28427;SDS011;15662;49.128;8.520;2024-02-04T13:55:38;1.45;;;0.70;;
28427;SDS011;15662;49.128;8.520;2024-02-04T13:58:05;0.45;;;0.45;;
28427;SDS011;15662;49.128;8.520;2024-02-04T14:00:33;0.47;;;0.47;;
28427;SDS011;15662;49.128;8.520;2024-02-04T14:03:00;1.25;;;0.40;;
28427;SDS011;15662;49.128;8.520;2024-02-04T14:05:27;1.05;;;0.40;;
28427;SDS011;15662;49.128;8.520;2024-02-04T14:07:54;0.50;;;0.50;;
28427;SDS011;15662;49.128;8.520;2024-02-04T14:10:25;0.40;;;0.40;;
28427;SDS011;15662;49.128;8.520;2024-02-04T14:12:57;1.50;;;0.47;;
28427;SDS011;15662;49.128;8.520;2024-02-04T14:15:24;0.60;;;0.60;;
28427;SDS011;15662;49.128;8.520;2024-02-04T14:17:52;1.85;;;0.50;;
28427;SDS011;15662;49.128;8.520;2024-02-04T14:20:30;1.40;;;0.50;;
28427;SDS011;15662;49.128;8.520;2024-02-04T14:22:58;1.35;;;0.60;;
28427;SDS011;15662;49.128;8.520;2024-02-04T14:25:25;0.63;;;0.40;;
28427;SDS011;15662;49.128;8.520;2024-02-04T14:27:56;0.60;;;0.50;;
28427;SDS011;15662;49.128;8.520;2024-02-04T14:30:23;0.63;;;0.60;;
28427;SDS011;15662;49.128;8.520;2024-02-04T14:32:51;0.75;;;0.63;;
28427;SDS011;15662;49.128;8.520;2024-02-04T14:35:18;0.70;;;0.60;;
28427;SDS011;15662;49.128;8.520;2024-02-04T14:37:45;0.60;;;0.60;;
28427;SDS011;15662;49.128;8.520;2024-02-04T14:40:13;0.57;;;0.57;;
28427;SDS011;15662;49.128;8.520;2024-02-04T14:42:41;1.35;;;0.65;;
28427;SDS011;15662;49.128;8.520;2024-02-04T14:45:09;1.08;;;0.63;;
28427;SDS011;15662;49.128;8.520;2024-02-04T14:47:38;0.70;;;0.70;;
28427;SDS011;15662;49.128;8.520;2024-02-04T14:50:05;0.90;;;0.90;;
28427;SDS011;15662;49.128;8.520;2024-02-04T14:52:33;0.75;;;0.70;;
28427;SDS011;15662;49.128;8.520;2024-02-04T14:55:01;2.85;;;0.77;;
28427;SDS011;15662;49.128;8.520;2024-02-04T14:57:28;0.73;;;0.70;;
28427;SDS011;15662;49.128;8.520;2024-02-04T14:59:56;0.70;;;0.70;;
28427;SDS011;15662;49.128;8.520;2024-02-04T15:02:23;0.80;;;0.80;;
28427;SDS011;15662;49.128;8.520;2024-02-04T15:04:50;0.90;;;0.90;;
28427;SDS011;15662;49.128;8.520;2024-02-04T15:07:20;1.23;;;1.08;;
28427;SDS011;15662;49.128;8.520;2024-02-04T15:09:47;0.75;;;0.75;;
28427;SDS011;15662;49.128;8.520;2024-02-04T15:12:17;1.48;;;1.20;;
28427;SDS011;15662;49.128;8.520;2024-02-04T15:14:45;1.02;;;0.93;;
28427;SDS011;15662;49.128;8.520;2024-02-04T15:17:13;1.13;;;0.90;;